Time;durP1;ratioP1;P1;durP2;ratioP2;P2;SDS_P1;SDS_P2;PMS_P1;PMS_P2;Temp;Humidity;BMP_temperature;BMP_pressure;BME280_temperature;BME280_humidity;BME280_pressure;Samples;Min_cycle;Max_cycle;Signal;HPM_P1;HPM_P2
2022/01/07 00:06:11;;;;;;;10;14.5;;;;;;;-3.5;70.9;99230;;;;
2022/01/07 00:17:11;;;;;;;11;15.3;;;;;;;-3.6;72.3;99240;;;;
2022/01/07 00:27:11;;;;;;;11;15.3;;;;;;;-3.6;72.2;99250;;;;
2022/01/07 00:37:11;;;;;;;11;15.3;;;;;;;-3.6;72.3;99260;;;;
2022/01/07 00:48:11;;;;;;;11.1;17.5;;;;;;;-3.7;72.1;99280;;;;
2022/01/07 00:58:11;;;;;;;11.1;17.5;;;;;;;-3.8;72.2;99290;;;;
2022/01/07 01:09:11;;;;;;;10.3;15;;;;;;;-3.7;73.1;99300;;;;
2022/01/07 01:19:11;;;;;;;10.3;15;;;;;;;-3.7;72.7;99290;;;;
2022/01/07 01:29:11;;;;;;;10.3;15;;;;;;;-3.8;73.2;99290;;;;
2022/01/07 01:39:12;;;;;;;10.2;14.5;;;;;;;-3.8;73.2;99280;;;;
2022/01/07 01:49:11;;;;;;;10.2;14.5;;;;;;;-3.9;73.4;99280;;;;
2022/01/07 02:00:12;;;;;;;10.2;14.5;;;;;;;-3.9;74;99280;;;;
2022/01/07 02:10:11;;;;;;;11.6;18.1;;;;;;;-4;73.9;99260;;;;
2022/01/07 02:21:11;;;;;;;11.6;18.1;;;;;;;-3.8;73.1;99250;;;;
2022/01/07 02:31:11;;;;;;;11.6;18.1;;;;;;;-3.7;72.9;99240;;;;
2022/01/07 02:41:11;;;;;;;11.4;17;;;;;;;-3.7;72.5;99240;;;;
2022/01/07 02:52:11;;;;;;;11.4;17;;;;;;;-3.7;72.9;99250;;;;
2022/01/07 03:02:11;;;;;;;11.4;17;;;;;;;-3.8;73.2;99260;;;;
2022/01/07 03:12:11;;;;;;;8.8;12.9;;;;;;;-4;73.2;99250;;;;
2022/01/07 03:23:12;;;;;;;8.8;12.9;;;;;;;-4;73.3;99250;;;;
2022/01/07 03:33:11;;;;;;;8.8;12.9;;;;;;;-4;72.3;99250;;;;
2022/01/07 03:43:11;;;;;;;9.2;14.3;;;;;;;-3.9;71.4;99250;;;;
2022/01/07 03:54:11;;;;;;;9.2;14.3;;;;;;;-4.1;71.6;99240;;;;
2022/01/07 04:04:11;;;;;;;9.2;14.3;;;;;;;-4.2;71.6;99250;;;;
2022/01/07 04:14:11;;;;;;;7.5;9.7;;;;;;;-4.4;72;99250;;;;
2022/01/07 04:25:13;;;;;;;7.5;9.7;;;;;;;-4.4;72;99240;;;;
2022/01/07 04:35:11;;;;;;;7.5;9.7;;;;;;;-4.4;72;99230;;;;
2022/01/07 04:45:11;;;;;;;8;13.4;;;;;;;-4.3;72.3;99250;;;;
2022/01/07 04:55:11;;;;;;;8;13.4;;;;;;;-4.3;72;99260;;;;
2022/01/07 05:06:39;;;;;;;8;13.4;;;;;;;-4.3;70.7;99250;;;;
2022/01/07 05:16:11;;;;;;;6.8;9.7;;;;;;;-4.2;69.9;99250;;;;
2022/01/07 05:26:11;;;;;;;6.8;9.7;;;;;;;-4.3;69.5;99250;;;;
2022/01/07 05:36:11;;;;;;;6.8;9.7;;;;;;;-4.4;69.6;99250;;;;
2022/01/07 05:47:11;;;;;;;6.4;10.6;;;;;;;-4.7;69.9;99260;;;;
2022/01/07 05:58:11;;;;;;;6.4;10.6;;;;;;;-5;70.2;99250;;;;
2022/01/07 06:09:11;;;;;;;7.6;11;;;;;;;-5.1;70.5;99250;;;;
2022/01/07 06:19:11;;;;;;;7.6;11;;;;;;;-5.2;70.7;99240;;;;
2022/01/07 06:30:11;;;;;;;7.6;11;;;;;;;-4.9;69.4;99230;;;;
2022/01/07 06:41:11;;;;;;;6.4;11.2;;;;;;;-4.7;67.9;99230;;;;
2022/01/07 06:52:11;;;;;;;6.4;11.2;;;;;;;-4.9;68.7;99220;;;;
2022/01/07 07:02:12;;;;;;;6.4;11.2;;;;;;;-5.2;69.9;99220;;;;
2022/01/07 07:13:11;;;;;;;14.1;20.1;;;;;;;-5.3;70.6;99220;;;;
2022/01/07 07:24:11;;;;;;;14.1;20.1;;;;;;;-5.3;72.1;99210;;;;
2022/01/07 07:34:21;;;;;;;14.1;20.1;;;;;;;-5.1;72.4;99210;;;;
2022/01/07 07:44:12;;;;;;;26.4;33;;;;;;;-4.9;72.6;99230;;;;
2022/01/07 07:55:11;;;;;;;26.4;33;;;;;;;-4.7;72.2;99230;;;;
2022/01/07 08:05:11;;;;;;;26.4;33;;;;;;;-4.6;72;99240;;;;
2022/01/07 08:16:15;;;;;;;39;53;;;;;;;-4.5;72.4;99230;;;;
2022/01/07 08:25:11;;;;;;;39;53;;;;;;;-4.3;72.2;99220;;;;
2022/01/07 08:36:11;;;;;;;39;53;;;;;;;-4;72.1;99220;;;;
2022/01/07 08:46:12;;;;;;;35.1;42.7;;;;;;;-3.5;69.9;99230;;;;
2022/01/07 08:56:11;;;;;;;35.1;42.7;;;;;;;-3;66.3;99230;;;;
2022/01/07 09:06:11;;;;;;;35.1;42.7;;;;;;;-2.5;60.7;99230;;;;
2022/01/07 09:17:11;;;;;;;17.7;22.1;;;;;;;-2;59.6;99220;;;;
2022/01/07 09:27:11;;;;;;;17.7;22.1;;;;;;;-1.6;58.6;99200;;;;
2022/01/07 09:38:11;;;;;;;21.9;34.3;;;;;;;-1.1;56.6;99200;;;;
2022/01/07 09:48:12;;;;;;;21.9;34.3;;;;;;;-0.7;56.3;99200;;;;
2022/01/07 09:59:11;;;;;;;21.9;34.3;;;;;;;-0.3;53.8;99180;;;;
2022/01/07 10:09:14;;;;;;;48.1;73;;;;;;;0;51.2;99170;;;;
2022/01/07 10:20:11;;;;;;;48.1;73;;;;;;;0.5;48.3;99170;;;;
2022/01/07 10:31:12;;;;;;;48.1;73;;;;;;;0.8;48;99150;;;;
2022/01/07 10:42:12;;;;;;;8.8;11.7;;;;;;;1.3;47.2;99150;;;;
2022/01/07 10:52:11;;;;;;;8.8;11.7;;;;;;;1.6;47.9;99150;;;;
2022/01/07 11:02:11;;;;;;;8.8;11.7;;;;;;;1.9;45.9;99140;;;;
2022/01/07 11:13:11;;;;;;;7.4;10.8;;;;;;;2.2;43;99120;;;;
2022/01/07 11:23:11;;;;;;;7.4;10.8;;;;;;;2.4;42;99100;;;;
2022/01/07 11:33:11;;;;;;;7.4;10.8;;;;;;;2.7;40.3;99090;;;;
2022/01/07 11:43:11;;;;;;;9.9;15.1;;;;;;;2.8;42.3;99080;;;;
2022/01/07 11:53:12;;;;;;;9.9;15.1;;;;;;;3.3;42.5;99060;;;;
2022/01/07 12:03:12;;;;;;;9.9;15.1;;;;;;;3.5;41.2;99050;;;;
2022/01/07 12:13:12;;;;;;;22;32.3;;;;;;;3.7;41.5;99040;;;;
2022/01/07 12:23:12;;;;;;;22;32.3;;;;;;;3.9;40;99040;;;;
2022/01/07 12:34:12;;;;;;;22;32.3;;;;;;;3.7;36;99030;;;;
2022/01/07 12:44:12;;;;;;;9.7;15.4;;;;;;;3.4;35.1;99030;;;;
2022/01/07 12:55:12;;;;;;;9.7;15.4;;;;;;;3.2;36.4;99040;;;;
2022/01/07 13:06:12;;;;;;;30.6;42.1;;;;;;;2.6;37.7;99030;;;;
2022/01/07 13:16:12;;;;;;;30.6;42.1;;;;;;;2.2;39.2;99040;;;;
2022/01/07 13:27:12;;;;;;;30.6;42.1;;;;;;;1.9;39.3;99030;;;;
2022/01/07 13:38:12;;;;;;;31.8;38.8;;;;;;;1.7;41.9;99030;;;;
2022/01/07 13:48:12;;;;;;;31.8;38.8;;;;;;;1.6;43.4;99010;;;;
2022/01/07 13:58:12;;;;;;;31.8;38.8;;;;;;;1.6;42.9;99020;;;;
2022/01/07 14:08:12;;;;;;;11;15.4;;;;;;;1.4;43.1;99000;;;;
2022/01/07 14:18:12;;;;;;;11;15.4;;;;;;;1.3;45.3;98990;;;;
2022/01/07 14:29:12;;;;;;;11;15.4;;;;;;;1;47.2;98990;;;;
2022/01/07 14:40:12;;;;;;;20.8;27.7;;;;;;;0.6;48.4;98980;;;;
2022/01/07 14:51:12;;;;;;;20.8;27.7;;;;;;;0.2;51.1;98970;;;;
2022/01/07 15:02:12;;;;;;;20.8;27.7;;;;;;;-0.1;52.2;98980;;;;
2022/01/07 15:13:12;;;;;;;19.8;27.2;;;;;;;-0.2;52.8;98980;;;;
2022/01/07 15:24:12;;;;;;;19.8;27.2;;;;;;;-0.4;53.1;98980;;;;
2022/01/07 15:35:12;;;;;;;19.8;27.2;;;;;;;-0.7;53.3;98970;;;;
2022/01/07 15:45:12;;;;;;;18.5;24.2;;;;;;;-1;54.8;98960;;;;
2022/01/07 15:56:12;;;;;;;18.5;24.2;;;;;;;-1.5;55.5;98950;;;;
2022/01/07 16:06:12;;;;;;;44.6;55.6;;;;;;;-1.8;56.6;98940;;;;
2022/01/07 16:17:12;;;;;;;44.6;55.6;;;;;;;-1.8;56.5;98920;;;;
2022/01/07 16:28:12;;;;;;;44.6;55.6;;;;;;;-2;56.3;98920;;;;
2022/01/07 16:38:12;;;;;;;33.9;43.3;;;;;;;-2.4;56.4;98920;;;;
2022/01/07 16:49:13;;;;;;;33.9;43.3;;;;;;;-2.5;56.1;98920;;;;
2022/01/07 16:59:12;;;;;;;33.9;43.3;;;;;;;-2.5;55.8;98900;;;;
2022/01/07 17:10:12;;;;;;;26.3;36.2;;;;;;;-2.5;54.9;98880;;;;
2022/01/07 17:21:12;;;;;;;26.3;36.2;;;;;;;-2.7;55.6;98890;;;;
2022/01/07 17:31:12;;;;;;;26.3;36.2;;;;;;;-2.9;58.8;98890;;;;
2022/01/07 17:41:12;;;;;;;59.1;70.9;;;;;;;-3.3;59;98900;;;;
2022/01/07 17:51:12;;;;;;;59.1;70.9;;;;;;;-3.7;60.2;98900;;;;
2022/01/07 18:01:12;;;;;;;59.1;70.9;;;;;;;-3.8;61;98910;;;;
2022/01/07 18:11:12;;;;;;;73.8;88.9;;;;;;;-3.9;60.2;98900;;;;
2022/01/07 18:21:12;;;;;;;73.8;88.9;;;;;;;-4;60.4;98900;;;;
2022/01/07 18:31:12;;;;;;;73.8;88.9;;;;;;;-4.1;61.3;98900;;;;
2022/01/07 18:42:12;;;;;;;52.3;78.2;;;;;;;-3.9;60.2;98900;;;;
2022/01/07 18:52:12;;;;;;;52.3;78.2;;;;;;;-3.9;59.2;98900;;;;
2022/01/07 19:02:12;;;;;;;52.3;78.2;;;;;;;-3.9;58.6;98900;;;;
2022/01/07 19:12:16;;;;;;;26.8;36.5;;;;;;;-3.9;59.6;98890;;;;
2022/01/07 19:22:12;;;;;;;26.8;36.5;;;;;;;-4;58.5;98880;;;;
2022/01/07 19:33:12;;;;;;;26.8;36.5;;;;;;;-4.2;60.9;98870;;;;
2022/01/07 19:43:12;;;;;;;35.8;46;;;;;;;-4.4;63;98850;;;;
2022/01/07 19:54:12;;;;;;;35.8;46;;;;;;;-4.6;62.6;98850;;;;
2022/01/07 20:05:12;;;;;;;85.9;102.9;;;;;;;-5;62.1;98860;;;;
2022/01/07 20:15:13;;;;;;;85.9;102.9;;;;;;;-5;64.3;98850;;;;
2022/01/07 20:26:12;;;;;;;85.9;102.9;;;;;;;-5;66.1;98840;;;;
2022/01/07 20:36:12;;;;;;;101.7;125.5;;;;;;;-5.1;67;98830;;;;
2022/01/07 20:46:12;;;;;;;101.7;125.5;;;;;;;-5;66.7;98820;;;;
2022/01/07 20:56:12;;;;;;;101.7;125.5;;;;;;;-4.9;66.1;98820;;;;
2022/01/07 21:07:12;;;;;;;96.2;112;;;;;;;-5.2;66.3;98810;;;;
2022/01/07 21:17:12;;;;;;;96.2;112;;;;;;;-5.4;65.9;98820;;;;
2022/01/07 21:27:12;;;;;;;96.2;112;;;;;;;-5.4;66;98810;;;;
2022/01/07 21:37:12;;;;;;;55.4;66;;;;;;;-5.5;66.6;98820;;;;
2022/01/07 21:48:15;;;;;;;55.4;66;;;;;;;-5.6;67.2;98830;;;;
2022/01/07 21:58:12;;;;;;;55.4;66;;;;;;;-5.7;68;98820;;;;
2022/01/07 22:09:12;;;;;;;61.8;74.6;;;;;;;-5.6;68.3;98820;;;;
2022/01/07 22:19:12;;;;;;;61.8;74.6;;;;;;;-5.6;68.4;98810;;;;
2022/01/07 22:29:12;;;;;;;61.8;74.6;;;;;;;-5.7;68.5;98820;;;;
2022/01/07 22:40:12;;;;;;;67.9;91.5;;;;;;;-5.7;68.6;98820;;;;
2022/01/07 22:51:13;;;;;;;67.9;91.5;;;;;;;-6;68.8;98810;;;;
2022/01/07 23:02:12;;;;;;;67.9;91.5;;;;;;;-6.1;69;98810;;;;
2022/01/07 23:12:13;;;;;;;63.7;79.9;;;;;;;-6.1;69.5;98800;;;;
2022/01/07 23:22:12;;;;;;;63.7;79.9;;;;;;;-6.2;69.3;98800;;;;
2022/01/07 23:33:12;;;;;;;63.7;79.9;;;;;;;-6.2;68.8;98780;;;;
2022/01/07 23:43:12;;;;;;;61.2;76.4;;;;;;;-6.4;68.5;98770;;;;
2022/01/07 23:53:12;;;;;;;61.2;76.4;;;;;;;-6.4;68.6;98770;;;;
